Time;durP1;ratioP1;P1;durP2;ratioP2;P2;SDS_P1;SDS_P2;PMS_P1;PMS_P2;Temp;Humidity;BMP_temperature;BMP_pressure;BME280_temperature;BME280_humidity;BME280_pressure;Samples;Min_cycle;Max_cycle;Signal;HPM_P1;HPM_P2
2022/10/28 00:00:51;;;;;;;20.88;18.27;;;;;;;9.82;87.33;102142.51;1792555;77;21019;-87
2022/10/28 00:03:20;;;;;;;21.77;18.35;;;;;;;9.84;87.41;102146.12;1848979;77;20965;-87
2022/10/28 00:05:47;;;;;;;22.45;19.05;;;;;;;9.84;87.37;102143.91;1851649;77;21031;-87
2022/10/28 00:08:14;;;;;;;23.30;18.40;;;;;;;9.82;87.42;102137.25;1851137;77;21533;-88
2022/10/28 00:10:41;;;;;;;20.27;17.65;;;;;;;9.83;87.37;102136.83;1846177;77;21677;-87
2022/10/28 00:13:08;;;;;;;19.12;16.55;;;;;;;9.83;87.26;102136.41;1802462;79;21052;-87
2022/10/28 00:15:35;;;;;;;21.07;18.00;;;;;;;9.82;87.19;102137.67;1774909;77;21074;-87
2022/10/28 00:18:01;;;;;;;22.73;17.27;;;;;;;9.80;87.15;102132.33;1851306;77;21027;-87
2022/10/28 00:20:30;;;;;;;19.50;17.17;;;;;;;9.81;87.16;102127.54;1851300;77;21044;-87
2022/10/28 00:22:57;;;;;;;19.65;17.40;;;;;;;9.80;87.18;102126.14;1851378;77;21731;-87
2022/10/28 00:25:24;;;;;;;20.60;17.23;;;;;;;9.81;87.21;102130.59;1851164;77;21031;-87
2022/10/28 00:27:51;;;;;;;20.35;16.30;;;;;;;9.81;87.10;102125.34;1851360;77;21027;-86
2022/10/28 00:30:18;;;;;;;19.17;16.57;;;;;;;9.78;87.23;102115.96;1851419;77;21503;-86
2022/10/28 00:32:44;;;;;;;23.05;17.52;;;;;;;9.77;87.33;102115.07;1851494;77;21090;-87
2022/10/28 00:35:11;;;;;;;20.27;16.93;;;;;;;9.78;87.41;102117.28;1804785;77;21815;-86
2022/10/28 00:37:38;;;;;;;18.23;15.90;;;;;;;9.77;87.27;102119.02;1816982;77;21058;-86
2022/10/28 00:40:06;;;;;;;19.92;17.12;;;;;;;9.76;87.21;102121.17;1819871;77;21059;-86
2022/10/28 00:42:33;;;;;;;18.27;16.37;;;;;;;9.76;87.27;102114.98;1833864;77;21027;-86
2022/10/28 00:45:01;;;;;;;20.12;17.05;;;;;;;9.77;87.40;102113.76;1851341;77;21047;-87
2022/10/28 00:47:56;;;;;;;22.75;17.62;;;;;;;9.78;87.35;102102.43;1847022;77;21742;-87
2022/10/28 00:50:40;;;;;;;20.80;16.37;;;;;;;9.80;87.44;102104.72;1839003;77;21038;-87
2022/10/28 00:53:12;;;;;;;19.37;17.12;;;;;;;9.80;87.25;102102.09;1833841;77;21020;-87
2022/10/28 00:55:39;;;;;;;22.35;18.02;;;;;;;9.82;87.32;102103.48;1825282;77;21051;-87
2022/10/28 00:58:06;;;;;;;26.40;18.73;;;;;;;9.84;87.45;102100.09;1795511;78;21068;-87
2022/10/28 01:00:33;;;;;;;61.13;21.90;;;;;;;9.86;87.52;102097.55;1825459;78;21761;-87
2022/10/28 01:03:00;;;;;;;19.42;17.35;;;;;;;9.89;87.77;102092.41;1825463;78;21063;-87
2022/10/28 01:05:29;;;;;;;33.05;20.60;;;;;;;9.91;87.57;102091.69;1807466;77;21110;-87
2022/10/28 01:08:00;;;;;;;23.55;19.05;;;;;;;9.91;87.46;102092.11;1804481;77;22291;-87
2022/10/28 01:10:57;;;;;;;28.60;19.45;;;;;;;9.92;87.53;102088.21;1812567;77;21053;-88
2022/10/28 01:13:41;;;;;;;30.80;21.52;;;;;;;9.92;87.56;102085.58;1825345;77;21743;-87
2022/10/28 01:16:35;;;;;;;132.27;22.17;;;;;;;9.96;87.57;102090.58;1835869;77;21631;-87
2022/10/28 01:19:33;;;;;;;39.20;25.13;;;;;;;9.99;87.66;102081.96;1859711;77;21041;-87
2022/10/28 01:22:50;;;;;;;98.07;24.95;;;;;;;10.01;87.66;102083.83;1858897;77;21047;-87
2022/10/28 01:25:52;;;;;;;135.00;24.52;;;;;;;10.02;87.60;102078.14;1831957;77;21301;-87
2022/10/28 01:29:00;;;;;;;101.62;21.70;;;;;;;10.00;87.54;102083.74;1838788;77;21766;-88
2022/10/28 01:31:45;;;;;;;59.60;23.67;;;;;;;9.98;87.66;102080.14;1849679;77;21027;-87
2022/10/28 01:34:31;;;;;;;120.85;26.55;;;;;;;9.97;87.72;102075.30;1830345;77;21106;-87
2022/10/28 01:37:31;;;;;;;53.10;24.20;;;;;;;9.97;87.79;102075.30;1858362;77;21046;-88
2022/10/28 01:40:15;;;;;;;105.65;23.32;;;;;;;9.98;87.94;102072.25;1850007;77;21056;-88
2022/10/28 01:42:59;;;;;;;112.90;28.00;;;;;;;9.97;87.90;102063.89;1841065;77;21758;-87
2022/10/28 01:45:32;;;;;;;;;;;;;;;10.00;88.14;102064.02;1860883;77;21031;-87
2022/10/28 01:48:06;;;;;;;182.57;28.30;;;;;;;10.02;88.33;102061.05;1822939;76;20273;-88
2022/10/28 01:50:53;;;;;;;45.03;30.43;;;;;;;10.04;88.38;102064.25;1790358;78;21446;-87
2022/10/28 01:53:23;;;;;;;129.63;33.15;;;;;;;10.07;88.44;102056.91;1769471;78;21069;-87
2022/10/28 01:55:52;;;;;;;146.90;49.15;;;;;;;10.06;88.45;102053.39;1789689;78;21758;-87
2022/10/28 01:58:22;;;;;;;110.35;51.15;;;;;;;10.08;88.52;102051.73;1777094;78;21124;-87
2022/10/28 02:00:49;;;;;;;113.25;52.33;;;;;;;10.11;88.50;102050.96;1781113;78;21057;-87
2022/10/28 02:03:16;;;;;;;141.53;54.60;;;;;;;10.12;88.47;102048.41;1772075;78;21537;-87
2022/10/28 02:05:50;;;;;;;109.60;38.75;;;;;;;10.14;88.37;102054.17;1819133;78;21166;-87
2022/10/28 02:08:34;;;;;;;140.65;33.18;;;;;;;10.14;88.29;102048.91;1789316;78;22521;-87
2022/10/28 02:11:21;;;;;;;194.77;85.85;;;;;;;10.15;88.39;102043.70;1815936;78;21553;-87
2022/10/28 02:14:03;;;;;;;130.75;46.77;;;;;;;10.18;88.61;102046.48;1815511;78;21020;-87
2022/10/28 02:16:55;;;;;;;100.82;42.60;;;;;;;10.19;88.45;102034.22;1820364;78;21060;-87
2022/10/28 02:19:39;;;;;;;147.22;52.55;;;;;;;10.17;88.41;102031.94;1815477;78;21120;-87
2022/10/28 02:22:23;;;;;;;85.67;44.83;;;;;;;10.15;88.39;102033.17;1798017;78;22365;-87
2022/10/28 02:24:56;;;;;;;93.82;29.40;;;;;;;10.14;88.54;102026.13;1820945;78;21135;-87
2022/10/28 02:27:44;;;;;;;60.88;24.37;;;;;;;10.14;88.45;102026.55;1822177;78;21016;-87
2022/10/28 02:30:24;;;;;;;98.97;26.07;;;;;;;10.14;88.80;102031.39;1821931;78;21047;-87
2022/10/28 02:32:55;;;;;;;73.55;26.55;;;;;;;10.12;88.64;102026.05;1819530;78;21023;-87
2022/10/28 02:35:36;;;;;;;73.47;29.80;;;;;;;10.10;88.42;102030.77;1774777;78;21654;-87
2022/10/28 02:38:08;;;;;;;94.40;25.88;;;;;;;10.03;88.41;102023.40;1757333;81;21047;-86
2022/10/28 02:40:35;;;;;;;73.20;27.55;;;;;;;10.03;88.53;102029.98;1761209;78;21009;-87
2022/10/28 02:43:03;;;;;;;58.85;27.37;;;;;;;10.00;88.46;102023.24;1756406;78;21037;-87
2022/10/28 02:45:40;;;;;;;49.03;20.65;;;;;;;9.97;88.55;102031.91;1750299;78;21055;-87
2022/10/28 02:48:11;;;;;;;63.00;22.50;;;;;;;9.96;88.59;102026.14;1771360;78;22425;-87
2022/10/28 02:50:41;;;;;;;63.52;22.60;;;;;;;9.95;88.67;102025.67;1813802;77;21051;-87
2022/10/28 02:53:18;;;;;;;57.58;21.23;;;;;;;9.92;88.68;102013.25;1795097;77;21050;-87
2022/10/28 02:55:45;;;;;;;70.20;20.85;;;;;;;9.89;88.69;102015.75;1851118;77;21673;-87
2022/10/28 02:58:12;;;;;;;57.10;21.27;;;;;;;9.87;88.63;102019.12;1823158;78;21101;-87
2022/10/28 03:00:44;;;;;;;57.33;21.50;;;;;;;9.86;88.83;102017.33;1822658;78;21780;-87
2022/10/28 03:03:11;;;;;;;80.57;23.10;;;;;;;9.84;88.74;102012.42;1820706;77;21046;-87
2022/10/28 03:05:38;;;;;;;40.98;22.58;;;;;;;9.79;88.70;102010.86;1798004;77;21072;-87
2022/10/28 03:08:05;;;;;;;85.47;25.08;;;;;;;9.78;88.74;102010.39;1789577;77;21326;-87
2022/10/28 03:10:31;;;;;;;63.38;24.60;;;;;;;9.78;88.94;102006.45;1807170;77;21081;-88
2022/10/28 03:12:58;;;;;;;42.88;25.17;;;;;;;9.80;89.16;102002.55;1822421;78;21732;-87
2022/10/28 03:15:25;;;;;;;124.25;52.50;;;;;;;9.80;89.12;101998.61;1849257;77;21151;-87
2022/10/28 03:17:52;;;;;;;99.37;58.52;;;;;;;9.80;89.07;101995.98;1817754;77;21065;-87
2022/10/28 03:20:18;;;;;;;134.12;74.67;;;;;;;9.76;88.99;101992.33;1800395;78;21058;-87
2022/10/28 03:22:45;;;;;;;136.20;73.15;;;;;;;9.76;89.10;101991.02;1822822;78;21048;-87
2022/10/28 03:25:12;;;;;;;91.08;56.20;;;;;;;9.74;89.03;101992.64;1798591;77;21730;-87
2022/10/28 03:27:40;;;;;;;84.07;44.45;;;;;;;9.73;89.06;101981.66;1816869;77;21126;-87
2022/10/28 03:30:07;;;;;;;104.12;38.48;;;;;;;9.73;89.13;101976.39;1804482;77;21530;-88
2022/10/28 03:32:34;;;;;;;50.73;37.23;;;;;;;9.73;89.12;101981.23;1818728;77;21532;-87
2022/10/28 03:35:02;;;;;;;78.37;30.70;;;;;;;9.73;89.13;101976.39;1834165;77;20992;-87
2022/10/28 03:37:28;;;;;;;40.03;28.57;;;;;;;9.74;89.16;101980.80;1794202;77;21602;-87
2022/10/28 03:39:55;;;;;;;33.67;26.23;;;;;;;9.76;89.28;101980.50;1794008;78;21646;-87
2022/10/28 03:42:22;;;;;;;62.80;27.25;;;;;;;9.77;89.30;101978.34;1833658;77;21012;-87
2022/10/28 03:44:49;;;;;;;34.90;26.40;;;;;;;9.79;89.14;101978.41;1837474;77;21083;-88
2022/10/28 03:47:16;;;;;;;51.45;26.27;;;;;;;9.77;89.16;101977.02;1821536;78;21027;-88
2022/10/28 03:49:43;;;;;;;42.17;24.82;;;;;;;9.79;89.16;101974.05;1809154;78;22278;-87
2022/10/28 03:52:10;;;;;;;29.50;24.98;;;;;;;9.78;89.15;101973.58;1803748;78;21594;-87
2022/10/28 03:54:36;;;;;;;26.27;23.45;;;;;;;9.79;89.09;101967.47;1767769;79;21072;-87
2022/10/28 03:57:03;;;;;;;25.35;22.48;;;;;;;9.80;89.06;101970.99;1776911;78;21078;-87
2022/10/28 03:59:30;;;;;;;25.45;22.58;;;;;;;9.82;89.15;101970.69;1785752;78;21519;-88
2022/10/28 04:01:57;;;;;;;24.82;22.15;;;;;;;9.85;89.31;101962.92;1788800;79;21744;-84
2022/10/28 04:04:23;;;;;;;24.25;21.70;;;;;;;9.91;89.51;101964.55;1793906;78;21102;-84
2022/10/28 04:06:50;;;;;;;27.27;23.52;;;;;;;9.96;89.62;101970.02;1783187;79;21042;-86
2022/10/28 04:09:17;;;;;;;31.90;23.50;;;;;;;10.00;89.65;101961.00;1806097;79;21494;-84
2022/10/28 04:11:48;;;;;;;29.55;22.22;;;;;;;10.04;89.61;101957.72;1812569;78;22106;-84
2022/10/28 04:14:15;;;;;;;27.00;21.97;;;;;;;10.09;89.67;101957.91;1820666;77;21674;-84
2022/10/28 04:16:42;;;;;;;26.12;22.30;;;;;;;10.11;89.56;101957.56;1807783;77;21673;-84
2022/10/28 04:19:09;;;;;;;28.73;24.18;;;;;;;10.12;89.45;101948.86;1808010;77;22190;-83
2022/10/28 04:21:35;;;;;;;26.15;23.42;;;;;;;10.12;89.44;101945.80;1825321;77;21094;-85
2022/10/28 04:24:02;;;;;;;27.17;23.83;;;;;;;10.15;89.42;101948.98;1808221;77;21056;-86
2022/10/28 04:26:31;;;;;;;24.77;22.30;;;;;;;10.17;89.46;101942.05;1829707;77;21579;-85
2022/10/28 04:28:57;;;;;;;24.45;21.95;;;;;;;10.22;89.47;101946.22;1833296;77;22042;-92
2022/10/28 04:31:24;;;;;;;25.80;22.62;;;;;;;10.26;89.58;101945.53;1828687;78;21539;-96
2022/10/28 04:33:53;;;;;;;24.37;21.52;;;;;;;10.30;89.51;101943.16;1859555;77;21028;-94
2022/10/28 04:36:20;;;;;;;23.98;20.95;;;;;;;10.36;89.53;101938.98;1859660;77;21097;-91
2022/10/28 04:38:46;;;;;;;23.60;21.07;;;;;;;10.41;89.55;101927.82;1859494;77;21738;-91
2022/10/28 04:41:14;;;;;;;26.37;23.57;;;;;;;10.46;89.51;101928.05;1824060;77;21010;-91
2022/10/28 04:43:41;;;;;;;23.92;21.42;;;;;;;10.50;89.50;101923.39;1824274;77;21036;-84
2022/10/28 04:46:07;;;;;;;24.72;21.93;;;;;;;10.55;89.55;101917.92;1809150;77;21036;-84
2022/10/28 04:48:34;;;;;;;25.75;23.05;;;;;;;10.59;89.58;101919.85;1814983;77;21773;-88
2022/10/28 04:51:01;;;;;;;26.12;23.40;;;;;;;10.63;89.59;101920.89;1794987;78;21665;-86
2022/10/28 04:53:28;;;;;;;30.65;27.32;;;;;;;10.67;89.69;101917.55;1777516;79;21539;-84
2022/10/28 04:55:58;;;;;;;27.05;24.15;;;;;;;10.73;89.75;101917.80;1790709;79;22169;-85
2022/10/28 04:58:25;;;;;;;28.45;25.02;;;;;;;10.76;89.79;101913.99;1780933;79;21072;-85
2022/10/28 05:00:52;;;;;;;26.23;22.93;;;;;;;10.81;89.86;101914.17;1783084;79;21488;-85
2022/10/28 05:03:19;;;;;;;27.55;23.90;;;;;;;10.85;89.95;101910.44;1781467;79;21748;-85
2022/10/28 05:05:47;;;;;;;28.02;24.98;;;;;;;10.90;90.06;101897.45;1786603;79;21057;-84
2022/10/28 05:08:14;;;;;;;28.42;25.25;;;;;;;10.96;90.05;101899.05;1794515;78;21130;-84
2022/10/28 05:10:40;;;;;;;27.73;24.70;;;;;;;10.99;90.07;101889.93;1754031;79;21054;-85
2022/10/28 05:13:07;;;;;;;28.45;25.55;;;;;;;11.03;90.15;101882.62;1773605;80;21058;-85
2022/10/28 05:15:34;;;;;;;28.57;25.57;;;;;;;11.06;90.14;101877.92;1780948;79;22267;-85
2022/10/28 05:18:01;;;;;;;27.27;24.32;;;;;;;11.09;90.16;101871.05;1783047;80;21105;-85
2022/10/28 05:20:28;;;;;;;28.10;25.10;;;;;;;11.14;90.20;101874.28;1797882;79;21088;-84
2022/10/28 05:22:55;;;;;;;27.55;24.57;;;;;;;11.17;90.29;101875.30;1805371;79;21028;-84
2022/10/28 05:25:22;;;;;;;27.20;24.35;;;;;;;11.22;90.32;101885.62;1805160;79;21110;-84
2022/10/28 05:27:49;;;;;;;26.15;23.35;;;;;;;11.27;90.32;101885.80;1803392;79;21731;-90
2022/10/28 05:30:16;;;;;;;27.30;24.50;;;;;;;11.34;90.33;101892.23;1787505;79;21051;-86
2022/10/28 05:32:42;;;;;;;28.17;25.17;;;;;;;11.37;90.22;101887.95;1784392;79;21109;-84
2022/10/28 05:35:09;;;;;;;27.45;24.10;;;;;;;11.40;90.11;101891.14;1777308;79;21346;-83
2022/10/28 05:37:36;;;;;;;27.95;24.98;;;;;;;11.42;90.03;101886.41;1780093;79;21082;-83
2022/10/28 05:40:04;;;;;;;28.55;25.55;;;;;;;11.43;89.98;101881.63;1785188;79;21666;-84
2022/10/28 05:42:31;;;;;;;29.05;25.37;;;;;;;11.41;89.84;101874.08;1786723;80;20976;-84
2022/10/28 05:44:57;;;;;;;29.40;26.30;;;;;;;11.43;89.84;101872.40;1786836;78;21562;-83
2022/10/28 05:47:24;;;;;;;31.57;25.12;;;;;;;11.46;89.89;101870.29;1788481;78;21605;-83
2022/10/28 05:49:51;;;;;;;28.73;25.65;;;;;;;11.48;89.82;101869.50;1803597;78;21528;-84
2022/10/28 05:52:18;;;;;;;31.05;25.97;;;;;;;11.50;89.71;101872.20;1786716;80;22425;-84
2022/10/28 05:54:45;;;;;;;29.65;26.25;;;;;;;11.50;89.65;101868.67;1786972;80;21055;-83
2022/10/28 05:57:12;;;;;;;35.95;28.23;;;;;;;11.48;89.57;101862.02;1800053;79;21600;-84
2022/10/28 05:59:39;;;;;;;33.28;29.05;;;;;;;11.46;89.52;101865.91;1800397;79;20975;-83
2022/10/28 06:02:12;;;;;;;31.48;27.98;;;;;;;11.44;89.51;101866.70;1800263;79;21098;-83
2022/10/28 06:04:39;;;;;;;38.85;29.80;;;;;;;11.45;89.53;101873.78;1800476;79;21740;-83
2022/10/28 06:07:13;;;;;;;33.18;29.10;;;;;;;11.45;89.58;101877.31;1799899;79;21540;-84
2022/10/28 06:09:42;;;;;;;33.92;28.85;;;;;;;11.48;89.64;101887.95;1800653;79;21557;-83
2022/10/28 06:12:09;;;;;;;35.20;30.52;;;;;;;11.51;89.62;101888.52;1800636;79;21003;-84
2022/10/28 06:14:36;;;;;;;35.28;31.02;;;;;;;11.53;89.59;101889.47;1800503;79;21050;-84
2022/10/28 06:17:03;;;;;;;34.73;27.95;;;;;;;11.55;89.57;101890.86;1800345;79;21720;-83
2022/10/28 06:19:30;;;;;;;37.28;28.85;;;;;;;11.57;89.58;101886.11;1799938;79;21121;-83
2022/10/28 06:21:57;;;;;;;35.55;30.52;;;;;;;11.59;89.50;101888.81;1800267;79;21054;-84
2022/10/28 06:24:24;;;;;;;35.95;28.95;;;;;;;11.63;89.60;101887.66;1800261;79;21887;-83
2022/10/28 06:26:51;;;;;;;36.10;30.27;;;;;;;11.67;89.60;101886.97;1780356;79;20977;-84
2022/10/28 06:29:19;;;;;;;41.73;31.52;;;;;;;11.73;89.62;101889.34;1778751;80;22627;-83
2022/10/28 06:31:45;;;;;;;39.73;31.30;;;;;;;11.77;89.65;101883.33;1747848;81;21054;-83
2022/10/28 06:34:14;;;;;;;43.42;33.60;;;;;;;11.82;89.63;101885.73;1747402;81;21046;-83
2022/10/28 06:36:41;;;;;;;37.78;32.98;;;;;;;11.87;89.70;101878.91;1778602;80;21640;-83
2022/10/28 06:39:08;;;;;;;39.58;32.30;;;;;;;11.90;89.71;101882.09;1778756;80;21481;-83
2022/10/28 06:41:35;;;;;;;43.05;32.20;;;;;;;11.95;89.66;101879.22;1752592;81;21746;-83
2022/10/28 06:44:03;;;;;;;39.90;33.85;;;;;;;11.99;89.65;101879.80;1785017;80;21051;-83
2022/10/28 06:46:31;;;;;;;47.40;35.75;;;;;;;12.04;89.74;101877.81;1785074;80;21060;-84
2022/10/28 06:48:57;;;;;;;46.95;34.38;;;;;;;12.11;89.72;101876.75;1786388;80;21615;-84
2022/10/28 06:51:24;;;;;;;45.50;33.58;;;;;;;12.16;89.65;101877.79;1795512;79;21033;-84
2022/10/28 06:53:51;;;;;;;37.33;32.03;;;;;;;12.20;89.61;101871.77;1822725;78;21765;-84
2022/10/28 06:56:18;;;;;;;44.00;31.23;;;;;;;12.24;89.56;101869.75;1822111;78;21072;-84
2022/10/28 06:58:51;;;;;;;37.28;30.45;;;;;;;12.30;89.61;101867.75;1822365;78;21062;-84
2022/10/28 07:01:18;;;;;;;35.08;29.07;;;;;;;12.35;89.54;101867.07;1822470;78;21027;-84
2022/10/28 07:03:47;;;;;;;37.33;29.70;;;;;;;12.38;89.37;101859.23;1822679;78;21101;-83
2022/10/28 07:06:15;;;;;;;35.23;29.30;;;;;;;12.41;89.34;101859.36;1822349;78;22587;-84
2022/10/28 07:08:42;;;;;;;39.10;30.48;;;;;;;12.44;89.34;101865.16;1822408;78;21078;-83
2022/10/28 07:11:09;;;;;;;41.48;31.05;;;;;;;12.46;89.20;101863.46;1797403;77;21046;-84
2022/10/28 07:13:36;;;;;;;35.40;29.07;;;;;;;12.51;89.26;101864.96;1790288;80;21544;-84
2022/10/28 07:16:04;;;;;;;35.98;29.10;;;;;;;12.54;89.15;101864.66;1790474;80;21503;-83
2022/10/28 07:18:30;;;;;;;37.98;29.48;;;;;;;12.57;89.13;101861.20;1790212;80;21752;-84
2022/10/28 07:21:00;;;;;;;39.08;29.35;;;;;;;12.63;89.21;101860.09;1789698;80;21097;-84
2022/10/28 07:23:27;;;;;;;35.10;30.45;;;;;;;12.70;89.16;101862.53;1790270;80;21096;-84
2022/10/28 07:25:55;;;;;;;40.48;30.37;;;;;;;12.75;89.00;101866.23;1808639;78;21078;-84
2022/10/28 07:28:22;;;;;;;37.53;29.15;;;;;;;12.77;89.06;101868.07;1823497;77;21035;-83
2022/10/28 07:30:49;;;;;;;34.38;30.00;;;;;;;12.85;89.00;101870.97;1817949;78;21690;-84
2022/10/28 07:33:16;;;;;;;40.35;31.27;;;;;;;12.91;88.97;101870.27;1817913;78;21063;-83
2022/10/28 07:35:43;;;;;;;41.85;31.40;;;;;;;13.02;89.04;101867.56;1817905;78;21048;-83
2022/10/28 07:38:10;;;;;;;38.10;30.37;;;;;;;13.15;89.10;101875.04;1823265;78;21134;-84
2022/10/28 07:40:37;;;;;;;35.52;29.27;;;;;;;13.27;88.98;101869.67;1822855;77;21082;-83
2022/10/28 07:43:06;;;;;;;35.38;29.60;;;;;;;13.33;88.71;101867.28;1822619;78;20972;-84
2022/10/28 07:45:34;;;;;;;37.78;30.45;;;;;;;13.38;88.68;101866.98;1825338;77;21073;-83
2022/10/28 07:48:01;;;;;;;38.15;29.12;;;;;;;13.40;88.46;101866.20;1810617;78;21061;-84
2022/10/28 07:50:29;;;;;;;38.63;32.23;;;;;;;13.44;88.29;101863.23;1785746;80;21527;-84
2022/10/28 07:52:56;;;;;;;36.80;28.62;;;;;;;13.49;88.29;101863.35;1785960;80;21050;-83
2022/10/28 07:55:24;;;;;;;37.78;30.88;;;;;;;13.69;88.71;101866.19;1783341;80;21758;-83
2022/10/28 07:57:52;;;;;;;37.73;29.25;;;;;;;13.88;88.66;101861.44;1785190;80;21491;-83
2022/10/28 08:00:21;;;;;;;35.03;28.52;;;;;;;14.02;88.40;101856.13;1782956;80;21081;-84
2022/10/28 08:02:47;;;;;;;35.58;27.93;;;;;;;14.13;88.28;101863.03;1785735;80;21113;-83
2022/10/28 08:05:14;;;;;;;38.23;28.35;;;;;;;14.22;87.90;101859.31;1783526;80;21406;-83
2022/10/28 08:07:41;;;;;;;33.40;28.73;;;;;;;14.25;87.73;101859.41;1786367;80;22542;-83
2022/10/28 08:10:08;;;;;;;37.17;29.77;;;;;;;14.26;87.49;101854.57;1786321;80;21507;-83
2022/10/28 08:12:36;;;;;;;35.40;29.65;;;;;;;14.27;87.23;101848.44;1783669;80;21046;-83
2022/10/28 08:15:03;;;;;;;36.17;29.98;;;;;;;14.22;87.03;101845.19;1786548;80;21034;-83
2022/10/28 08:17:30;;;;;;;38.40;30.65;;;;;;;14.17;86.88;101847.69;1783558;80;21133;-83
2022/10/28 08:19:57;;;;;;;33.80;28.95;;;;;;;14.19;86.94;101845.58;1786422;80;21753;-83
2022/10/28 08:22:24;;;;;;;34.55;28.83;;;;;;;14.25;86.92;101845.28;1786333;80;21548;-83
2022/10/28 08:24:51;;;;;;;36.05;28.87;;;;;;;14.33;87.10;101836.67;1787900;78;21413;-83
2022/10/28 08:27:19;;;;;;;35.88;29.25;;;;;;;14.44;87.22;101831.67;1822155;78;21327;-83
2022/10/28 08:29:47;;;;;;;34.63;29.00;;;;;;;14.58;87.04;101834.30;1822407;78;21547;-83
2022/10/28 08:32:13;;;;;;;42.05;32.10;;;;;;;14.70;87.02;101842.09;1822655;78;21799;-84
2022/10/28 08:34:40;;;;;;;36.40;31.20;;;;;;;14.76;86.56;101830.31;1822335;78;21548;-83
2022/10/28 08:37:07;;;;;;;36.88;30.55;;;;;;;14.76;86.46;101822.36;1822607;78;21920;-84
2022/10/28 08:39:34;;;;;;;36.77;30.25;;;;;;;14.81;86.45;101815.83;1822475;78;21645;-84
2022/10/28 08:42:32;;;;;;;39.33;30.17;;;;;;;14.85;86.41;101814.64;1821882;78;21032;-83
2022/10/28 08:45:41;;;;;;;35.92;30.52;;;;;;;14.98;86.49;101818.49;1825744;78;21730;-83
2022/10/28 08:48:22;;;;;;;37.80;31.12;;;;;;;14.97;85.88;101820.22;1825418;77;21046;-84
2022/10/28 08:50:52;;;;;;;42.10;33.60;;;;;;;14.94;85.83;101812.63;1818173;78;21166;-83
2022/10/28 08:53:36;;;;;;;37.17;31.90;;;;;;;15.06;86.19;101811.60;1804608;79;21063;-84
2022/10/28 08:56:09;;;;;;;40.58;32.50;;;;;;;15.15;86.15;101805.19;1805007;79;21351;-83
2022/10/28 08:58:36;;;;;;;42.50;34.60;;;;;;;15.22;85.98;101800.02;1805176;79;21791;-83
2022/10/28 09:01:03;;;;;;;39.58;32.42;;;;;;;15.33;85.83;101798.50;1780501;79;21070;-83
2022/10/28 09:03:34;;;;;;;43.48;34.45;;;;;;;15.39;85.76;101792.02;1805128;79;21094;-83
2022/10/28 09:06:06;;;;;;;40.05;33.65;;;;;;;15.45;85.54;101789.94;1804939;79;21082;-84
2022/10/28 09:08:45;;;;;;;41.37;33.98;;;;;;;15.41;85.19;101794.28;1804920;79;21125;-83
2022/10/28 09:11:49;;;;;;;44.38;35.65;;;;;;;15.31;84.97;101785.20;1767645;79;21837;-83
2022/10/28 09:14:38;;;;;;;42.40;37.00;;;;;;;15.30;85.17;101793.14;1723262;83;21522;-83
2022/10/28 09:17:19;;;;;;;44.73;34.92;;;;;;;15.40;85.14;101796.45;1726531;83;20987;-83
2022/10/28 09:19:52;;;;;;;44.08;36.73;;;;;;;15.49;85.25;101791.78;1726527;83;20991;-83
2022/10/28 09:22:44;;;;;;;45.92;37.58;;;;;;;15.62;85.36;101788.97;1787020;79;21532;-83
2022/10/28 09:25:33;;;;;;;40.65;34.67;;;;;;;15.59;84.74;101786.23;1806747;79;22560;-84
2022/10/28 09:28:05;;;;;;;43.08;36.20;;;;;;;15.46;84.54;101778.00;1806881;79;21867;-84
2022/10/28 09:31:10;;;;;;;44.42;37.40;;;;;;;15.41;84.58;101769.48;1806827;79;20972;-83
2022/10/28 09:34:00;;;;;;;43.10;35.85;;;;;;;15.42;84.79;101768.19;1806756;79;21367;-83
2022/10/28 09:36:41;;;;;;;42.90;34.85;;;;;;;15.43;84.79;101760.71;1799075;79;20988;-82
2022/10/28 09:39:22;;;;;;;43.73;36.73;;;;;;;15.46;84.96;101763.84;1774947;79;21729;-84
2022/10/28 09:41:49;;;;;;;43.73;36.10;;;;;;;15.46;85.04;101762.08;1788652;78;20981;-84
2022/10/28 09:44:39;;;;;;;43.23;37.73;;;;;;;15.51;85.17;101759.10;1790799;79;20978;-84
2022/10/28 09:47:19;;;;;;;40.48;33.58;;;;;;;15.58;85.23;101757.48;1789260;78;21079;-84
2022/10/28 09:49:46;;;;;;;40.63;33.13;;;;;;;15.59;84.98;101757.93;1780536;79;21081;-84
2022/10/28 09:52:25;;;;;;;36.35;31.07;;;;;;;15.63;85.09;101754.91;1804817;78;21719;-84
2022/10/28 09:54:52;;;;;;;36.63;31.73;;;;;;;15.70;85.17;101750.19;1804088;79;21082;-83
2022/10/28 09:57:21;;;;;;;35.43;30.82;;;;;;;15.81;85.30;101751.77;1805000;79;21078;-84
2022/10/28 09:59:48;;;;;;;35.83;29.63;;;;;;;15.94;85.32;101752.47;1803812;79;21058;-84
2022/10/28 10:02:30;;;;;;;32.13;28.62;;;;;;;16.04;85.02;101749.11;1804543;79;21027;-84
2022/10/28 10:04:57;;;;;;;39.25;31.48;;;;;;;16.10;84.82;101737.29;1804998;79;21753;-83
2022/10/28 10:07:42;;;;;;;36.33;31.52;;;;;;;16.10;84.32;101737.29;1804629;79;21160;-84
2022/10/28 10:10:19;;;;;;;36.05;30.45;;;;;;;16.11;84.28;101732.42;1805188;79;21082;-84
2022/10/28 10:12:48;;;;;;;35.10;27.95;;;;;;;16.21;84.14;101724.61;1781422;79;22429;-83
2022/10/28 10:15:22;;;;;;;33.45;28.32;;;;;;;16.32;84.05;101736.32;1804817;79;21066;-84
2022/10/28 10:17:49;;;;;;;29.85;26.52;;;;;;;16.39;83.70;101734.23;1801907;79;22591;-84
2022/10/28 10:20:18;;;;;;;34.95;28.80;;;;;;;16.43;83.56;101726.77;1806744;79;20947;-83
2022/10/28 10:22:46;;;;;;;32.60;27.13;;;;;;;16.54;83.55;101731.38;1789556;79;21002;-83
2022/10/28 10:25:24;;;;;;;35.95;28.42;;;;;;;16.65;83.35;101723.14;1751526;81;20995;-83
2022/10/28 10:28:14;;;;;;;32.80;27.95;;;;;;;16.73;83.20;101716.61;1768848;81;21027;-83
2022/10/28 10:30:55;;;;;;;32.67;28.35;;;;;;;16.80;83.00;101716.72;1751501;81;21493;-84
2022/10/28 10:33:35;;;;;;;35.48;27.50;;;;;;;16.86;82.78;101714.62;1752540;81;21001;-83
2022/10/28 10:36:14;;;;;;;36.08;28.92;;;;;;;16.87;82.56;101713.32;1735228;82;20953;-84
2022/10/28 10:38:59;;;;;;;38.55;28.40;;;;;;;16.86;82.37;101711.52;1737991;82;21001;-83
2022/10/28 10:41:43;;;;;;;41.13;29.95;;;;;;;16.83;82.16;101710.58;1760435;79;20973;-83
2022/10/28 10:44:33;;;;;;;35.43;31.25;;;;;;;16.76;82.02;101712.23;1768604;81;21736;-83
2022/10/28 10:47:05;;;;;;;41.65;35.10;;;;;;;16.68;81.88;101718.73;1768481;79;21001;-84
2022/10/28 10:49:32;;;;;;;35.08;29.37;;;;;;;16.63;81.96;101711.15;1737809;82;21042;-83
2022/10/28 10:52:01;;;;;;;40.23;32.03;;;;;;;16.57;81.95;101706.16;1763405;79;21010;-83
2022/10/28 10:54:31;;;;;;;36.15;29.63;;;;;;;16.52;81.89;101705.66;1791963;80;21469;-83
2022/10/28 10:57:17;;;;;;;35.23;29.07;;;;;;;16.47;81.87;101702.47;1791618;80;23597;-83
2022/10/28 10:59:47;;;;;;;34.98;30.17;;;;;;;16.42;81.98;101706.39;1791693;80;20963;-84
2022/10/28 11:02:35;;;;;;;36.13;30.70;;;;;;;16.39;82.02;101707.66;1791757;80;20998;-84
2022/10/28 11:05:08;;;;;;;35.05;30.75;;;;;;;16.44;82.25;101704.66;1791835;80;20974;-84
2022/10/28 11:07:36;;;;;;;41.58;33.92;;;;;;;16.56;82.46;101703.95;1792099;80;21002;-83
2022/10/28 11:10:04;;;;;;;37.38;32.53;;;;;;;16.61;82.30;101701.34;1791179;77;22557;-83
2022/10/28 11:12:35;;;;;;;39.58;33.18;;;;;;;16.62;82.12;101695.17;1734249;80;21549;-83
2022/10/28 11:15:12;;;;;;;41.63;35.58;;;;;;;16.61;81.92;101694.28;1785339;80;20903;-84
2022/10/28 11:17:39;;;;;;;42.30;34.20;;;;;;;16.63;81.99;101699.19;1796795;78;20968;-83
2022/10/28 11:20:30;;;;;;;38.73;32.80;;;;;;;16.69;81.95;101692.62;1827363;77;21463;-83
2022/10/28 11:23:43;;;;;;;39.35;32.90;;;;;;;16.80;82.10;101692.79;1827231;78;22348;-83
2022/10/28 11:26:13;;;;;;;41.98;33.42;;;;;;;16.96;81.89;101697.02;1827121;78;20933;-84
2022/10/28 11:29:03;;;;;;;39.18;34.80;;;;;;;17.04;81.68;101694.94;1827245;77;21502;-84
2022/10/28 11:31:53;;;;;;;38.08;32.48;;;;;;;17.08;81.47;101697.20;1728994;82;20958;-84
2022/10/28 11:34:55;;;;;;;36.38;32.45;;;;;;;17.07;81.19;101698.06;1725120;82;22149;-84